Time;durP1;ratioP1;P1;durP2;ratioP2;P2;SDS_P1;SDS_P2;PMS_P1;PMS_P2;Temp;Humidity;BMP_temperature;BMP_pressure;BME280_temperature;BME280_humidity;BME280_pressure;Samples;Min_cycle;Max_cycle;Signal;HPM_P1;HPM_P2
2022/11/01 00:01:29;;;;;;;18.58;7.82;;;13.80;99.90;;;;;;5109629;28;20044;-76
2022/11/01 00:03:56;;;;;;;18.83;9.38;;;13.80;99.90;;;;;;5109613;28;20083;-74
2022/11/01 00:06:22;;;;;;;22.88;9.40;;;13.80;99.90;;;;;;5110054;28;20402;-77
2022/11/01 00:08:48;;;;;;;17.98;8.23;;;13.90;99.90;;;;;;5109854;28;20048;-76
2022/11/01 00:11:15;;;;;;;19.77;9.05;;;13.90;99.90;;;;;;5109669;28;20410;-75
2022/11/01 00:13:44;;;;;;;15.75;8.27;;;14.40;99.90;;;;;;5109725;28;20118;-77
2022/11/01 00:16:10;;;;;;;16.65;8.00;;;13.90;99.90;;;;;;5109529;28;20402;-76
2022/11/01 00:18:36;;;;;;;17.88;8.18;;;13.90;99.90;;;;;;5109227;28;20482;-77
2022/11/01 00:21:01;;;;;;;17.98;8.35;;;14.10;99.90;;;;;;5109949;28;20054;-75
2022/11/01 00:23:27;;;;;;;18.52;7.50;;;13.90;99.90;;;;;;5109400;28;20039;-77
2022/11/01 00:25:53;;;;;;;18.48;8.10;;;13.90;99.90;;;;;;5110642;28;20040;-76
2022/11/01 00:28:19;;;;;;;14.35;8.68;;;13.90;99.90;;;;;;5113492;28;20052;-74
2022/11/01 00:30:45;;;;;;;16.55;8.05;;;13.90;99.90;;;;;;5113281;28;20047;-77
2022/11/01 00:33:11;;;;;;;18.10;7.68;;;13.90;99.90;;;;;;5113026;28;20044;-78
2022/11/01 00:35:36;;;;;;;20.30;8.20;;;14.60;99.90;;;;;;5112727;28;20058;-75
2022/11/01 00:38:02;;;;;;;18.20;7.75;;;14.50;99.90;;;;;;5112976;28;20081;-74
2022/11/01 00:40:28;;;;;;;20.88;7.70;;;13.90;99.90;;;;;;5113505;28;20048;-74
2022/11/01 00:42:54;;;;;;;16.02;7.97;;;14.40;99.90;;;;;;5113106;28;20043;-77
2022/11/01 00:45:20;;;;;;;15.52;7.63;;;13.90;99.90;;;;;;5113259;28;20039;-76
2022/11/01 00:47:46;;;;;;;19.85;7.72;;;13.90;99.90;;;;;;5112904;28;20043;-75
2022/11/01 00:50:12;;;;;;;18.70;7.60;;;14.20;99.90;;;;;;5113089;28;20389;-75
2022/11/01 00:52:38;;;;;;;20.55;7.80;;;13.90;99.90;;;;;;5113160;28;20048;-77
2022/11/01 00:55:04;;;;;;;16.52;7.65;;;13.90;99.90;;;;;;5113382;28;20213;-77
2022/11/01 00:57:30;;;;;;;14.95;7.80;;;13.90;99.90;;;;;;5095095;28;20055;-77
2022/11/01 00:59:55;;;;;;;22.10;8.07;;;14.50;99.90;;;;;;5113480;28;20065;-76
2022/11/01 01:02:21;;;;;;;19.42;8.02;;;14.00;99.90;;;;;;5112842;28;20372;-78
2022/11/01 01:04:48;;;;;;;19.55;7.68;;;13.90;99.90;;;;;;5112704;28;20079;-76
2022/11/01 01:07:13;;;;;;;18.92;8.10;;;14.50;99.90;;;;;;5112247;28;20046;-76
2022/11/01 01:09:39;;;;;;;16.25;7.72;;;13.60;99.90;;;;;;5112766;28;20051;-76
2022/11/01 01:12:05;;;;;;;21.55;7.10;;;14.20;99.90;;;;;;5112670;28;20035;-75
2022/11/01 01:14:31;;;;;;;20.70;7.65;;;13.90;99.90;;;;;;5112581;28;20467;-75
2022/11/01 01:16:56;;;;;;;20.95;7.82;;;13.90;99.90;;;;;;5112595;28;20036;-75
2022/11/01 01:19:27;;;;;;;18.60;7.78;;;13.90;99.90;;;;;;5077488;28;20095;-76
2022/11/01 01:21:52;;;;;;;15.90;7.65;;;14.50;99.90;;;;;;5112049;28;20039;-76
2022/11/01 01:24:18;;;;;;;18.38;7.45;;;14.00;99.90;;;;;;5112540;28;20040;-74
2022/11/01 01:26:44;;;;;;;19.95;7.90;;;14.00;99.90;;;;;;5112483;28;20699;-77
2022/11/01 01:29:10;;;;;;;16.50;7.35;;;14.60;99.90;;;;;;5112182;28;20047;-75
2022/11/01 01:31:35;;;;;;;16.65;7.10;;;14.00;99.90;;;;;;5112637;28;20122;-75
2022/11/01 01:34:01;;;;;;;16.85;7.13;;;14.00;99.90;;;;;;5093246;28;20059;-74
2022/11/01 01:36:26;;;;;;;19.50;7.53;;;14.10;99.90;;;;;;5111813;28;20042;-76
2022/11/01 01:38:52;;;;;;;21.98;8.10;;;14.50;99.90;;;;;;5092661;28;20101;-77
2022/11/01 01:44:21;;;;;;;;;;;14.10;99.90;;;;;;5112340;28;20463;-76
2022/11/01 01:46:47;;;;;;;16.63;7.15;;;14.10;99.90;;;;;;5111757;28;19920;-76
2022/11/01 01:49:13;;;;;;;20.15;7.57;;;14.10;99.90;;;;;;5111292;28;20039;-76
2022/11/01 01:51:38;;;;;;;16.42;7.10;;;14.10;99.90;;;;;;5111883;28;20047;-77
2022/11/01 01:54:04;;;;;;;20.67;7.28;;;14.00;99.90;;;;;;5111655;28;20772;-76
2022/11/01 01:56:34;;;;;;;14.73;7.25;;;14.10;99.90;;;;;;5111712;28;20062;-75
2022/11/01 01:59:08;;;;;;;17.75;6.80;;;14.10;99.90;;;;;;5111609;28;20062;-76
2022/11/01 02:01:37;;;;;;;18.25;6.93;;;14.00;99.90;;;;;;5111438;28;20040;-76
2022/11/01 02:04:06;;;;;;;18.10;7.40;;;14.00;99.90;;;;;;5110533;28;20081;-76
2022/11/01 02:06:33;;;;;;;17.10;7.35;;;14.10;99.90;;;;;;5111480;28;20039;-75
2022/11/01 02:09:02;;;;;;;22.08;7.07;;;14.00;99.90;;;;;;5111789;28;20040;-76
2022/11/01 02:11:27;;;;;;;17.05;7.15;;;14.10;99.90;;;;;;5111606;28;20130;-75
2022/11/01 02:13:53;;;;;;;16.50;7.07;;;14.00;99.90;;;;;;5111198;28;20111;-76
2022/11/01 02:16:38;;;;;;;21.05;6.95;;;14.00;99.90;;;;;;5111050;28;20397;-76
2022/11/01 02:19:21;;;;;;;20.48;7.18;;;14.10;99.90;;;;;;5092618;28;20055;-77
2022/11/01 02:22:00;;;;;;;13.77;7.30;;;14.00;99.90;;;;;;5076084;28;20490;-76
2022/11/01 02:24:46;;;;;;;19.15;7.57;;;13.90;99.90;;;;;;5111130;28;20126;-77
2022/11/01 02:27:24;;;;;;;19.42;6.93;;;14.00;99.90;;;;;;5110938;28;20082;-74
2022/11/01 02:30:13;;;;;;;16.50;7.20;;;14.00;99.90;;;;;;5111035;28;20112;-76
2022/11/01 02:32:54;;;;;;;14.73;7.43;;;14.00;99.90;;;;;;5110756;28;20040;-77
2022/11/01 02:35:23;;;;;;;17.83;6.78;;;14.00;99.90;;;;;;5110630;28;20065;-76
2022/11/01 02:38:05;;;;;;;13.65;6.88;;;14.00;99.90;;;;;;5110539;28;20048;-75
2022/11/01 02:40:44;;;;;;;13.25;6.53;;;14.00;99.90;;;;;;5110998;28;20039;-77
2022/11/01 02:43:29;;;;;;;16.60;6.57;;;14.00;99.90;;;;;;5110769;28;20044;-74
2022/11/01 02:45:56;;;;;;;14.00;6.72;;;14.00;99.90;;;;;;5110817;28;20050;-77
2022/11/01 02:48:24;;;;;;;18.70;6.63;;;14.10;99.90;;;;;;5110390;28;20497;-76
2022/11/01 02:50:57;;;;;;;14.65;6.68;;;14.00;99.90;;;;;;5110285;28;20040;-76
2022/11/01 02:53:23;;;;;;;20.02;6.47;;;14.00;99.90;;;;;;5110862;28;20039;-77
2022/11/01 02:55:53;;;;;;;14.82;6.75;;;14.00;99.90;;;;;;5110790;28;20043;-77
2022/11/01 02:58:24;;;;;;;18.77;7.13;;;14.00;99.90;;;;;;5110502;28;20055;-77
2022/11/01 03:00:51;;;;;;;17.08;6.93;;;14.00;99.90;;;;;;5110303;28;20055;-74
2022/11/01 03:03:22;;;;;;;13.73;6.70;;;14.00;99.90;;;;;;5110631;28;20425;-77
2022/11/01 03:05:57;;;;;;;14.65;6.55;;;14.00;99.90;;;;;;5109898;28;20418;-75
2022/11/01 03:08:31;;;;;;;14.55;6.80;;;14.00;99.90;;;;;;5110551;28;20043;-76
2022/11/01 03:11:31;;;;;;;16.25;6.88;;;14.00;99.90;;;;;;5092085;28;20043;-77
2022/11/01 03:14:10;;;;;;;14.43;6.45;;;14.10;99.90;;;;;;5026855;28;20128;-77
2022/11/01 03:17:09;;;;;;;12.60;6.10;;;14.00;99.90;;;;;;5007788;28;20217;-74
2022/11/01 03:19:40;;;;;;;16.48;6.93;;;14.00;99.90;;;;;;5025486;28;20328;-73
2022/11/01 03:22:15;;;;;;;16.67;6.53;;;14.10;99.90;;;;;;5027339;28;20475;-76
2022/11/01 03:25:37;;;;;;;13.85;5.90;;;14.10;99.90;;;;;;5027335;28;20053;-75
2022/11/01 03:27:56;;;;;;;14.80;5.38;;;14.10;99.90;;;;;;5026198;28;20532;-77
2022/11/01 03:30:22;;;;;;;13.10;5.80;;;14.20;99.90;;;;;;5010022;28;20050;-77
2022/11/01 03:32:52;;;;;;;13.98;5.85;;;14.20;99.90;;;;;;5009759;28;20052;-76
2022/11/01 03:35:27;;;;;;;10.90;5.55;;;14.20;99.90;;;;;;5026946;28;20056;-76
2022/11/01 03:37:57;;;;;;;17.88;6.22;;;14.50;99.90;;;;;;5027265;28;20179;-75
2022/11/01 03:40:26;;;;;;;19.80;6.75;;;14.20;99.90;;;;;;5026873;28;20048;-75
2022/11/01 03:42:53;;;;;;;10.02;5.38;;;14.20;99.90;;;;;;5026425;28;20045;-77
2022/11/01 03:45:23;;;;;;;17.25;6.20;;;14.30;99.90;;;;;;5010112;28;20160;-76
2022/11/01 03:47:49;;;;;;;12.57;5.40;;;14.30;99.90;;;;;;5026471;28;20142;-76
2022/11/01 03:50:23;;;;;;;18.75;6.35;;;14.30;99.90;;;;;;5067248;28;20059;-76
2022/11/01 03:52:49;;;;;;;19.77;5.75;;;14.30;99.90;;;;;;5109518;28;20482;-76
2022/11/01 03:55:17;;;;;;;14.90;5.38;;;14.30;99.90;;;;;;5109688;28;20091;-75
2022/11/01 03:57:54;;;;;;;14.00;6.32;;;14.30;99.90;;;;;;5109566;28;20595;-76
2022/11/01 04:00:22;;;;;;;14.50;5.72;;;14.30;99.90;;;;;;5109591;28;20044;-76
2022/11/01 04:02:49;;;;;;;14.57;5.47;;;14.50;99.90;;;;;;5113122;28;20031;-76
2022/11/01 04:05:16;;;;;;;18.13;5.90;;;14.40;99.90;;;;;;5094840;28;20063;-77
2022/11/01 04:07:42;;;;;;;11.90;5.13;;;14.40;99.90;;;;;;5113312;28;20488;-77
2022/11/01 04:10:09;;;;;;;12.93;4.75;;;14.50;99.90;;;;;;5095368;28;20044;-77
2022/11/01 04:12:35;;;;;;;10.52;4.82;;;14.50;99.90;;;;;;5113326;28;20538;-76
2022/11/01 04:20:32;;;;;;;14.83;5.60;;;14.70;99.90;;;;;;5095184;28;20087;-76
2022/11/01 04:23:04;;;;;;;16.20;5.45;;;14.60;99.90;;;;;;5113260;28;20437;-75
2022/11/01 04:25:31;;;;;;;13.27;5.07;;;14.80;99.90;;;;;;5113249;28;20069;-74
2022/11/01 04:27:57;;;;;;;18.90;5.45;;;14.80;99.90;;;;;;5113457;28;20050;-75
2022/11/01 04:30:24;;;;;;;14.50;4.55;;;14.90;99.90;;;;;;5113318;28;20043;-77
2022/11/01 04:32:50;;;;;;;13.00;5.32;;;15.10;99.90;;;;;;5113285;28;20040;-75
2022/11/01 04:35:16;;;;;;;13.05;4.63;;;14.90;99.90;;;;;;5113471;28;20121;-77
2022/11/01 04:37:42;;;;;;;17.23;5.00;;;15.00;99.90;;;;;;5112890;28;20421;-76
2022/11/01 04:40:08;;;;;;;13.63;4.82;;;15.10;99.90;;;;;;5113108;28;20039;-73
2022/11/01 04:42:38;;;;;;;13.55;5.03;;;15.10;99.90;;;;;;5113266;28;20047;-73
2022/11/01 04:45:05;;;;;;;10.38;4.38;;;15.30;99.90;;;;;;5112098;28;20126;-75
2022/11/01 04:47:30;;;;;;;16.00;4.85;;;15.10;99.90;;;;;;5112924;28;20081;-75
2022/11/01 04:49:56;;;;;;;15.35;4.97;;;15.20;99.90;;;;;;5113063;28;20482;-76
2022/11/01 04:52:22;;;;;;;9.75;4.78;;;15.20;99.90;;;;;;5094110;28;20051;-75
2022/11/01 04:54:47;;;;;;;12.07;4.55;;;15.30;99.90;;;;;;5112833;28;20049;-78
2022/11/01 04:57:23;;;;;;;15.32;4.32;;;15.30;99.90;;;;;;5112841;28;20127;-76
2022/11/01 04:59:53;;;;;;;23.67;4.63;;;15.40;99.90;;;;;;5112213;28;20798;-77
2022/11/01 05:02:20;;;;;;;17.38;5.50;;;15.40;99.90;;;;;;5111746;28;20100;-75
2022/11/01 05:04:46;;;;;;;13.25;4.78;;;15.40;99.90;;;;;;5111950;28;20047;-75
2022/11/01 05:07:12;;;;;;;14.38;4.90;;;15.40;99.90;;;;;;5094139;28;20440;-77
2022/11/01 05:09:38;;;;;;;13.20;4.35;;;15.30;99.90;;;;;;5109491;28;20047;-76
2022/11/01 05:12:04;;;;;;;8.48;4.45;;;15.40;99.90;;;;;;5092429;28;20051;-76
2022/11/01 05:14:30;;;;;;;12.68;4.35;;;15.30;99.90;;;;;;5109242;28;20043;-75
2022/11/01 05:16:56;;;;;;;11.57;4.20;;;15.40;99.90;;;;;;5111986;28;20085;-74
2022/11/01 05:19:22;;;;;;;10.30;3.63;;;15.30;99.90;;;;;;5112140;28;20159;-78
2022/11/01 05:21:48;;;;;;;8.15;3.90;;;15.30;99.90;;;;;;5112313;28;20457;-75
2022/11/01 05:24:14;;;;;;;11.10;4.07;;;15.40;99.90;;;;;;5093834;28;20541;-78
2022/11/01 05:26:40;;;;;;;11.68;4.22;;;15.40;99.90;;;;;;5111660;28;20056;-76
2022/11/01 05:29:06;;;;;;;13.45;4.50;;;15.40;99.90;;;;;;5112164;28;20119;-79
2022/11/01 05:31:32;;;;;;;11.80;3.72;;;15.40;99.90;;;;;;5112212;28;20123;-78
2022/11/01 05:33:58;;;;;;;10.48;4.10;;;15.40;99.90;;;;;;5093355;28;20063;-76
2022/11/01 05:36:24;;;;;;;9.60;3.92;;;15.40;99.90;;;;;;5112132;28;20050;-76
2022/11/01 05:38:49;;;;;;;10.85;3.40;;;15.30;99.90;;;;;;5111868;28;20508;-77
2022/11/01 05:41:15;;;;;;;10.70;3.28;;;15.40;99.90;;;;;;5111570;28;20391;-76
2022/11/01 05:43:40;;;;;;;10.60;2.70;;;15.40;99.90;;;;;;5111806;28;20096;-75
2022/11/01 05:46:07;;;;;;;9.52;2.80;;;15.30;99.90;;;;;;5111918;28;20043;-79
2022/11/01 05:48:33;;;;;;;9.48;2.20;;;15.20;99.90;;;;;;5111679;28;20513;-77
2022/11/01 05:50:59;;;;;;;7.72;1.90;;;15.20;99.90;;;;;;5111995;28;20079;-78
2022/11/01 05:53:25;;;;;;;9.55;1.38;;;15.20;99.90;;;;;;5093630;28;20090;-76
2022/11/01 05:55:54;;;;;;;5.75;1.17;;;15.30;99.90;;;;;;5111908;28;20039;-77
2022/11/01 05:58:19;;;;;;;6.03;1.35;;;15.10;99.90;;;;;;5111384;28;20119;-78
2022/11/01 06:00:45;;;;;;;7.18;1.25;;;15.00;99.90;;;;;;5111838;28;20446;-75
2022/11/01 06:03:10;;;;;;;5.55;1.20;;;14.90;99.90;;;;;;5111257;28;20088;-75
2022/11/01 06:05:37;;;;;;;9.45;1.27;;;14.80;99.90;;;;;;5110991;28;20474;-78
2022/11/01 06:08:03;;;;;;;6.32;1.17;;;14.70;99.90;;;;;;5110667;28;20539;-77
2022/11/01 06:10:30;;;;;;;5.47;1.10;;;14.70;99.90;;;;;;5110436;28;20044;-75
2022/11/01 06:12:56;;;;;;;5.13;0.70;;;14.60;99.90;;;;;;5110157;28;20977;-75
2022/11/01 06:15:22;;;;;;;5.05;0.82;;;14.60;99.90;;;;;;5109775;28;20047;-76
2022/11/01 06:17:47;;;;;;;4.82;0.98;;;14.50;99.90;;;;;;5109945;28;20470;-76
2022/11/01 06:20:13;;;;;;;7.85;1.10;;;14.60;99.90;;;;;;5110479;28;20051;-76
2022/11/01 06:22:39;;;;;;;4.53;0.90;;;14.40;99.90;;;;;;5110248;28;20042;-76
2022/11/01 06:25:05;;;;;;;8.98;0.90;;;14.30;99.90;;;;;;5109553;28;20043;-75
2022/11/01 06:27:31;;;;;;;7.13;1.00;;;14.30;99.90;;;;;;5110202;28;20050;-76
2022/11/01 06:29:57;;;;;;;5.50;1.10;;;14.20;99.90;;;;;;5092208;28;20051;-76
2022/11/01 06:32:22;;;;;;;3.97;0.73;;;14.20;99.90;;;;;;5110270;28;20069;-76
2022/11/01 06:34:48;;;;;;;6.95;1.33;;;14.10;99.90;;;;;;5110183;28;20039;-77
2022/11/01 06:37:14;;;;;;;3.55;0.80;;;14.10;99.90;;;;;;5091863;28;20483;-76
2022/11/01 06:39:39;;;;;;;3.58;0.90;;;14.00;99.90;;;;;;5109592;28;20513;-76
2022/11/01 06:42:05;;;;;;;2.85;0.68;;;14.20;99.90;;;;;;5092191;28;20486;-78
2022/11/01 06:44:30;;;;;;;4.55;0.90;;;13.90;99.90;;;;;;5110138;28;20044;-74
2022/11/01 06:46:59;;;;;;;5.22;1.10;;;13.90;99.90;;;;;;5092165;28;20047;-77
2022/11/01 06:49:25;;;;;;;4.88;0.77;;;13.90;99.90;;;;;;5110068;28;20780;-77
2022/11/01 06:51:51;;;;;;;7.00;1.02;;;13.80;99.90;;;;;;5110563;28;20145;-76
2022/11/01 06:54:16;;;;;;;7.65;0.90;;;13.80;99.90;;;;;;5110355;28;20043;-76
2022/11/01 06:56:45;;;;;;;8.85;1.70;;;14.50;99.90;;;;;;5110057;28;20056;-75
2022/11/01 06:59:11;;;;;;;8.63;1.20;;;13.70;99.90;;;;;;5109944;28;20470;-74
2022/11/01 07:01:37;;;;;;;10.10;1.60;;;13.60;99.90;;;;;;5109426;28;20486;-75
2022/11/01 07:04:02;;;;;;;8.38;1.30;;;13.70;99.90;;;;;;5071750;28;1077737;-76
2022/11/01 07:06:29;;;;;;;10.52;1.50;;;13.50;99.90;;;;;;5110798;28;20143;-75
2022/11/01 07:08:56;;;;;;;10.07;1.73;;;13.60;99.90;;;;;;5110386;28;20124;-74
2022/11/01 07:11:22;;;;;;;11.38;1.70;;;13.40;99.90;;;;;;5110186;28;20047;-76
2022/11/01 07:13:48;;;;;;;9.90;1.73;;;13.40;99.90;;;;;;5091394;28;20146;-75
2022/11/01 07:16:13;;;;;;;9.73;1.60;;;13.40;99.90;;;;;;5109916;28;20040;-78
2022/11/01 07:18:39;;;;;;;8.45;1.20;;;13.60;99.90;;;;;;5092406;28;20055;-76
2022/11/01 07:21:05;;;;;;;11.32;1.42;;;13.40;99.90;;;;;;5092199;28;20364;-75
2022/11/01 07:23:31;;;;;;;8.20;1.10;;;13.40;99.90;;;;;;5110205;28;20091;-76
2022/11/01 07:25:57;;;;;;;11.65;1.70;;;13.60;99.90;;;;;;5110071;28;20147;-78
2022/11/01 07:28:23;;;;;;;11.30;1.73;;;13.60;99.90;;;;;;5110419;28;20130;-77
2022/11/01 07:30:50;;;;;;;11.63;1.80;;;13.40;99.90;;;;;;5091787;28;20043;-76
2022/11/01 07:33:16;;;;;;;11.63;1.90;;;13.40;99.90;;;;;;5110179;28;20047;-75
2022/11/01 07:35:42;;;;;;;10.40;1.38;;;13.40;99.90;;;;;;5110724;28;20510;-76
2022/11/01 07:38:09;;;;;;;11.05;1.52;;;13.40;99.90;;;;;;5114188;28;20040;-75
2022/11/01 07:40:35;;;;;;;13.15;1.60;;;13.40;99.90;;;;;;5113726;28;20094;-79
2022/11/01 07:43:02;;;;;;;12.10;1.70;;;13.40;99.90;;;;;;5114281;28;20112;-79
2022/11/01 07:45:30;;;;;;;6.07;1.30;;;13.50;99.90;;;;;;5114249;28;20051;-75
2022/11/01 07:48:01;;;;;;;8.32;1.25;;;13.60;99.90;;;;;;5114190;28;20122;-75
2022/11/01 07:50:28;;;;;;;10.32;1.77;;;13.60;99.90;;;;;;5113995;28;20032;-76
2022/11/01 07:53:02;;;;;;;12.77;1.90;;;14.30;99.90;;;;;;5113729;28;20047;-77
2022/11/01 07:55:28;;;;;;;16.23;1.92;;;13.70;99.90;;;;;;5113529;28;20798;-76
2022/11/01 07:57:53;;;;;;;13.77;1.52;;;13.60;99.90;;;;;;5113638;28;20043;-76
2022/11/01 08:00:19;;;;;;;10.20;1.70;;;13.70;99.90;;;;;;5114030;28;20509;-76
2022/11/01 08:02:45;;;;;;;13.88;1.88;;;13.70;99.90;;;;;;5113494;28;20124;-73
2022/11/01 08:05:11;;;;;;;15.07;2.03;;;13.70;99.90;;;;;;5113280;28;20055;-76
2022/11/01 08:07:40;;;;;;;12.63;2.28;;;13.70;99.90;;;;;;5114185;28;20039;-75
2022/11/01 08:10:08;;;;;;;13.43;1.75;;;13.70;99.90;;;;;;5094962;28;20055;-75
2022/11/01 08:12:34;;;;;;;10.15;2.22;;;13.60;99.90;;;;;;5113721;28;20035;-77
2022/11/01 08:15:01;;;;;;;14.93;1.75;;;14.00;99.90;;;;;;5113962;28;20727;-75
2022/11/01 08:17:32;;;;;;;15.38;2.60;;;14.40;99.90;;;;;;5114303;28;20043;-76
2022/11/01 08:19:58;;;;;;;11.48;1.98;;;13.80;99.90;;;;;;5113409;28;20069;-76
2022/11/01 08:22:24;;;;;;;13.15;2.88;;;14.30;99.90;;;;;;5113662;28;20130;-75
2022/11/01 08:24:50;;;;;;;19.00;2.40;;;13.90;99.90;;;;;;5113609;28;20483;-76
2022/11/01 08:27:15;;;;;;;19.58;2.63;;;14.40;99.90;;;;;;5113307;28;20497;-76
2022/11/01 08:29:41;;;;;;;16.75;2.10;;;13.90;99.90;;;;;;5113239;28;20044;-75
2022/11/01 08:32:07;;;;;;;13.00;2.13;;;14.00;99.90;;;;;;5095233;28;20103;-75
2022/11/01 08:34:32;;;;;;;24.30;2.67;;;14.60;99.90;;;;;;5112848;28;20044;-75
2022/11/01 08:36:58;;;;;;;22.00;3.53;;;14.00;99.90;;;;;;5113235;28;20402;-75
2022/11/01 08:39:24;;;;;;;17.05;3.05;;;14.10;99.90;;;;;;5113301;28;20485;-76
2022/11/01 08:41:50;;;;;;;11.05;2.13;;;13.90;99.90;;;;;;5113079;28;20047;-76
2022/11/01 08:44:18;;;;;;;18.60;2.85;;;13.90;99.90;;;;;;5112859;28;20050;-76
2022/11/01 08:46:44;;;;;;;19.17;2.67;;;14.50;99.90;;;;;;5112368;28;20051;-75
2022/11/01 08:49:11;;;;;;;15.77;2.60;;;14.00;99.90;;;;;;5092420;28;20043;-75
2022/11/01 08:51:37;;;;;;;14.13;2.35;;;13.90;99.90;;;;;;5092803;28;20052;-75
2022/11/01 08:54:04;;;;;;;21.02;2.55;;;13.80;99.90;;;;;;5092730;28;20052;-75
2022/11/01 08:56:30;;;;;;;14.95;2.65;;;13.90;99.90;;;;;;5092510;28;20044;-74
2022/11/01 08:58:56;;;;;;;19.90;2.65;;;13.90;99.90;;;;;;5093833;28;20048;-73
2022/11/01 09:01:25;;;;;;;17.40;2.65;;;13.90;99.90;;;;;;5086949;28;20048;-74
2022/11/01 09:03:59;;;;;;;18.25;2.92;;;14.10;99.90;;;;;;5073972;28;20048;-76
2022/11/01 09:06:26;;;;;;;22.00;3.30;;;14.00;99.90;;;;;;5095905;28;20051;-74
2022/11/01 09:08:54;;;;;;;21.13;2.90;;;14.10;99.90;;;;;;5092645;28;20394;-74
2022/11/01 09:11:22;;;;;;;21.10;3.90;;;14.60;99.90;;;;;;5092189;28;20109;-73
2022/11/01 09:13:49;;;;;;;14.52;2.45;;;14.50;99.90;;;;;;5092131;28;20039;-75
2022/11/01 09:16:15;;;;;;;16.10;2.60;;;14.60;99.90;;;;;;5092047;28;20567;-73
2022/11/01 09:18:41;;;;;;;19.27;2.50;;;14.60;99.90;;;;;;5106102;28;20493;-74
2022/11/01 09:21:07;;;;;;;17.48;2.95;;;14.60;99.90;;;;;;5112127;28;20498;-75
2022/11/01 09:23:34;;;;;;;22.17;3.92;;;14.70;99.90;;;;;;5112220;28;20098;-75
2022/11/01 09:26:06;;;;;;;15.00;2.65;;;15.00;99.90;;;;;;5112247;28;20504;-75
2022/11/01 09:28:31;;;;;;;14.82;2.53;;;14.90;99.90;;;;;;5111934;28;20505;-75
2022/11/01 09:31:02;;;;;;;22.95;3.00;;;14.90;99.90;;;;;;5112364;28;20039;-73
2022/11/01 09:33:28;;;;;;;20.40;2.85;;;14.80;99.90;;;;;;5111919;28;20044;-75
2022/11/01 09:35:54;;;;;;;21.10;3.05;;;14.80;99.90;;;;;;5094067;28;20082;-74
2022/11/01 09:38:20;;;;;;;18.42;2.20;;;15.10;99.90;;;;;;5112044;28;20478;-74
2022/11/01 09:40:53;;;;;;;18.77;2.67;;;14.80;99.90;;;;;;5112087;28;20051;-75
2022/11/01 09:43:25;;;;;;;14.13;2.60;;;14.80;99.90;;;;;;5110917;28;20046;-75
2022/11/01 09:45:53;;;;;;;18.23;2.38;;;14.90;99.90;;;;;;5111472;28;20077;-77
2022/11/01 09:48:19;;;;;;;15.15;2.55;;;15.00;99.90;;;;;;5093659;28;20439;-76
2022/11/01 09:50:45;;;;;;;18.70;2.60;;;15.20;99.90;;;;;;5111693;28;20056;-76
2022/11/01 09:53:20;;;;;;;21.60;4.40;;;15.20;99.90;;;;;;5111828;28;20040;-77
2022/11/01 09:56:14;;;;;;;20.15;2.45;;;15.30;99.90;;;;;;5111649;28;20546;-78
2022/11/01 09:58:55;;;;;;;19.65;2.92;;;15.40;99.90;;;;;;5110706;28;20046;-74
2022/11/01 10:01:30;;;;;;;12.80;2.47;;;15.60;99.90;;;;;;5111475;28;20128;-73
2022/11/01 10:04:14;;;;;;;16.75;2.90;;;15.60;99.90;;;;;;5111241;28;20043;-76
2022/11/01 10:07:07;;;;;;;17.38;2.78;;;15.60;99.90;;;;;;5111384;28;20052;-77
2022/11/01 10:09:51;;;;;;;15.00;2.88;;;15.60;99.90;;;;;;5026527;28;20064;-76
2022/11/01 10:12:38;;;;;;;24.42;2.88;;;15.50;99.90;;;;;;5028409;28;20140;-77
2022/11/01 10:15:12;;;;;;;19.60;3.00;;;15.50;99.90;;;;;;5028025;28;20107;-76
2022/11/01 10:17:47;;;;;;;21.10;2.85;;;15.40;99.90;;;;;;5028619;28;20045;-77
2022/11/01 10:20:14;;;;;;;23.38;3.13;;;15.50;99.90;;;;;;5028216;28;20053;-75
2022/11/01 10:22:43;;;;;;;13.63;2.00;;;15.50;99.90;;;;;;5028238;28;20514;-75
2022/11/01 10:25:23;;;;;;;39.15;3.55;;;15.40;99.90;;;;;;5011279;28;20472;-76
2022/11/01 10:27:54;;;;;;;25.30;3.80;;;15.40;99.90;;;;;;5027713;28;20069;-77
2022/11/01 10:30:21;;;;;;;12.88;2.67;;;15.40;99.90;;;;;;4995222;28;20041;-77
2022/11/01 10:33:02;;;;;;;23.92;2.67;;;15.40;99.90;;;;;;5028136;28;20077;-75
2022/11/01 10:35:35;;;;;;;15.50;2.58;;;15.60;99.90;;;;;;5028307;28;20408;-76
2022/11/01 10:38:22;;;;;;;15.45;2.53;;;15.70;99.90;;;;;;5027984;28;20053;-76
2022/11/01 10:40:58;;;;;;;17.60;2.58;;;15.50;99.90;;;;;;5027997;28;20643;-76
2022/11/01 10:43:25;;;;;;;24.45;2.75;;;15.50;99.90;;;;;;5027691;28;20048;-75
2022/11/01 10:45:54;;;;;;;19.10;4.07;;;15.70;99.90;;;;;;5026766;28;20127;-77
2022/11/01 10:48:30;;;;;;;15.55;2.78;;;15.40;99.90;;;;;;5110788;28;20043;-76
2022/11/01 10:51:00;;;;;;;18.77;2.88;;;15.30;99.90;;;;;;5107451;28;20379;-76
2022/11/01 10:53:30;;;;;;;13.73;1.85;;;15.20;99.90;;;;;;5092198;28;20043;-77
2022/11/01 10:56:00;;;;;;;16.58;2.25;;;15.90;99.90;;;;;;5091778;28;20062;-76
2022/11/01 10:58:41;;;;;;;17.52;2.65;;;15.30;99.90;;;;;;5110664;28;20072;-77
2022/11/01 11:01:11;;;;;;;15.25;2.45;;;14.90;99.90;;;;;;5109713;28;20054;-77
2022/11/01 11:03:40;;;;;;;14.15;2.65;;;15.20;99.90;;;;;;5110568;28;20040;-78
2022/11/01 11:06:10;;;;;;;13.02;2.65;;;14.80;99.90;;;;;;5110448;28;20052;-76
2022/11/01 11:08:39;;;;;;;15.73;2.40;;;14.80;99.90;;;;;;5110660;28;20123;-75
2022/11/01 11:11:14;;;;;;;19.88;3.05;;;14.90;99.90;;;;;;5109810;28;20040;-77
2022/11/01 11:13:46;;;;;;;13.02;2.58;;;14.80;99.90;;;;;;5110620;28;20065;-75
2022/11/01 11:16:38;;;;;;;12.63;2.40;;;14.90;99.90;;;;;;5110311;28;20048;-77
2022/11/01 11:19:20;;;;;;;15.07;2.85;;;14.90;99.90;;;;;;5026939;28;20515;-77
2022/11/01 11:21:48;;;;;;;18.80;2.85;;;14.90;99.90;;;;;;5027398;28;20046;-76
2022/11/01 11:24:19;;;;;;;16.75;2.95;;;14.90;99.90;;;;;;5010590;28;20053;-76
2022/11/01 11:26:48;;;;;;;11.70;2.13;;;15.30;99.90;;;;;;5026826;28;20134;-75
2022/11/01 11:29:47;;;;;;;15.55;2.03;;;14.80;99.90;;;;;;5026968;28;20821;-75
2022/11/01 11:32:28;;;;;;;16.35;2.95;;;14.80;99.90;;;;;;5026793;28;20049;-75
2022/11/01 11:35:01;;;;;;;18.83;2.95;;;15.20;99.90;;;;;;5026965;28;20571;-76
2022/11/01 11:37:33;;;;;;;24.83;2.88;;;14.90;99.90;;;;;;5027046;28;20072;-77
2022/11/01 11:40:18;;;;;;;15.85;2.55;;;15.20;99.90;;;;;;5026936;28;20057;-76
2022/11/01 11:42:48;;;;;;;;;;;15.10;99.90;;;;;;5011042;28;20068;-77
2022/11/01 11:45:21;;;;;;;21.02;2.53;;;15.20;99.90;;;;;;5027215;28;19979;-77
2022/11/01 11:47:48;;;;;;;18.85;2.30;;;15.40;99.90;;;;;;5026760;28;20048;-77
2022/11/01 11:50:20;;;;;;;18.27;2.47;;;15.50;99.90;;;;;;5026908;28;20077;-75
2022/11/01 11:52:49;;;;;;;12.73;2.58;;;16.10;99.90;;;;;;5026751;28;20045;-78
2022/11/01 11:55:42;;;;;;;18.27;2.60;;;15.80;99.90;;;;;;5041329;28;20052;-75
2022/11/01 11:58:20;;;;;;;18.05;2.53;;;15.90;99.90;;;;;;5089484;28;20050;-79
2022/11/01 12:00:50;;;;;;;18.45;2.70;;;15.90;99.90;;;;;;5089419;28;20052;-75
2022/11/01 12:03:16;;;;;;;19.52;2.47;;;15.90;99.90;;;;;;5089565;28;20169;-77
2022/11/01 12:05:54;;;;;;;16.30;2.92;;;16.30;99.90;;;;;;5070644;28;20105;-74
2022/11/01 12:08:43;;;;;;;18.15;2.38;;;15.90;99.90;;;;;;5105091;28;20055;-77
2022/11/01 12:11:10;;;;;;;17.38;2.47;;;16.00;99.90;;;;;;5110092;28;20043;-76
2022/11/01 12:13:40;;;;;;;12.43;2.10;;;15.80;99.90;;;;;;5109572;28;20587;-80
2022/11/01 12:16:09;;;;;;;13.57;2.45;;;15.90;99.90;;;;;;5091920;28;20075;-77
2022/11/01 12:18:48;;;;;;;15.98;2.55;;;16.00;99.90;;;;;;5091277;28;20075;-76
2022/11/01 12:21:22;;;;;;;11.88;2.00;;;16.10;99.90;;;;;;5109445;28;20044;-76
2022/11/01 12:23:51;;;;;;;13.68;2.30;;;16.10;99.90;;;;;;5113878;28;20040;-76
2022/11/01 12:26:19;;;;;;;13.40;1.90;;;16.30;99.90;;;;;;5110741;28;20452;-77
2022/11/01 12:29:00;;;;;;;14.38;2.22;;;16.40;99.90;;;;;;5112568;28;20442;-75
2022/11/01 12:31:26;;;;;;;14.20;2.03;;;16.40;99.90;;;;;;5113767;28;20043;-77
2022/11/01 12:33:58;;;;;;;17.63;2.45;;;16.40;99.90;;;;;;5113375;28;20557;-77
2022/11/01 12:36:48;;;;;;;15.00;2.25;;;16.40;99.90;;;;;;5113881;28;20054;-75
2022/11/01 12:39:49;;;;;;;15.07;2.20;;;16.30;99.90;;;;;;5112767;28;20143;-76
2022/11/01 12:42:23;;;;;;;11.80;1.92;;;16.40;99.90;;;;;;5095195;28;20049;-76
2022/11/01 12:44:55;;;;;;;14.73;2.03;;;16.50;99.90;;;;;;5113151;28;20055;-75
2022/11/01 12:47:28;;;;;;;10.82;2.22;;;16.70;99.90;;;;;;5094540;28;20823;-74
2022/11/01 12:50:04;;;;;;;13.20;2.17;;;16.80;99.90;;;;;;5113020;28;20398;-77
2022/11/01 12:52:43;;;;;;;19.80;2.63;;;16.80;99.90;;;;;;5112913;28;20044;-75
2022/11/01 12:55:27;;;;;;;11.35;1.95;;;16.80;99.90;;;;;;5113217;28;20036;-75
2022/11/01 12:57:54;;;;;;;13.43;1.98;;;16.80;99.90;;;;;;5112997;28;20064;-76
2022/11/01 13:00:20;;;;;;;9.55;1.80;;;16.90;99.90;;;;;;5112897;28;20122;-76